Time;durP1;ratioP1;P1;durP2;ratioP2;P2;SDS_P1;SDS_P2;PMS_P1;PMS_P2;Temp;Humidity;BMP_temperature;BMP_pressure;BME280_temperature;BME280_humidity;BME280_pressure;Samples;Min_cycle;Max_cycle;Signal;HPM_P1;HPM_P2
2023/04/27 00:01:14;;;;;;;3.00;2.80;;;6.70;99.90;;;;;;5043568;28;20527;-77
2023/04/27 00:03:40;;;;;;;3.17;2.83;;;6.60;99.90;;;;;;5043231;28;20227;-77
2023/04/27 00:06:07;;;;;;;3.20;2.60;;;6.60;99.90;;;;;;5037732;28;20339;-76
2023/04/27 00:08:33;;;;;;;3.67;2.95;;;6.60;99.90;;;;;;5032972;28;20167;-77
2023/04/27 00:10:59;;;;;;;6.72;2.92;;;6.60;99.90;;;;;;5050008;28;20246;-76
2023/04/27 00:13:25;;;;;;;2.92;2.72;;;6.60;99.90;;;;;;5047098;28;20183;-76
2023/04/27 00:15:51;;;;;;;3.83;2.80;;;6.70;99.90;;;;;;5034426;28;20208;-76
2023/04/27 00:18:17;;;;;;;3.00;2.72;;;6.80;99.90;;;;;;5053720;28;20190;-76
2023/04/27 00:20:43;;;;;;;3.70;3.22;;;6.80;99.90;;;;;;5043645;28;20199;-76
2023/04/27 00:23:09;;;;;;;3.30;3.03;;;6.80;99.90;;;;;;5050563;28;20242;-76
2023/04/27 00:25:35;;;;;;;2.88;2.70;;;6.70;99.90;;;;;;5045889;28;20203;-76
2023/04/27 00:28:00;;;;;;;4.55;3.03;;;6.70;99.90;;;;;;5033296;28;20651;-76
2023/04/27 00:30:26;;;;;;;3.28;2.97;;;6.60;99.90;;;;;;5048105;28;20639;-77
2023/04/27 00:32:52;;;;;;;3.72;3.05;;;6.60;99.90;;;;;;5040882;28;20184;-76
2023/04/27 00:35:17;;;;;;;2.97;2.67;;;6.60;99.90;;;;;;5047190;28;20262;-76
2023/04/27 00:37:43;;;;;;;4.78;3.38;;;6.50;99.90;;;;;;5051612;28;20551;-75
2023/04/27 00:40:09;;;;;;;5.20;3.30;;;6.50;99.90;;;;;;5045267;28;20175;-75
2023/04/27 00:42:35;;;;;;;3.47;3.17;;;6.40;99.90;;;;;;5043595;28;20588;-75
2023/04/27 00:45:01;;;;;;;6.10;3.95;;;6.40;99.90;;;;;;5047437;28;20175;-76
2023/04/27 00:47:28;;;;;;;3.58;3.03;;;6.30;99.90;;;;;;5038800;28;20203;-76
2023/04/27 00:49:55;;;;;;;3.95;3.20;;;6.30;99.90;;;;;;5026680;28;20614;-76
2023/04/27 00:52:20;;;;;;;4.25;3.15;;;6.30;99.90;;;;;;5041997;28;20758;-75
2023/04/27 00:54:50;;;;;;;3.58;3.25;;;6.40;99.90;;;;;;5052152;28;20176;-76
2023/04/27 00:57:16;;;;;;;3.30;3.00;;;6.40;99.90;;;;;;5049119;28;20282;-77
2023/04/27 00:59:41;;;;;;;7.85;3.47;;;6.40;99.90;;;;;;5031859;28;20325;-77
2023/04/27 01:02:09;;;;;;;4.75;3.38;;;6.40;99.90;;;;;;5048071;28;20176;-76
2023/04/27 01:04:35;;;;;;;3.63;3.08;;;6.50;99.90;;;;;;5048412;28;20176;-76
2023/04/27 01:07:01;;;;;;;3.25;2.78;;;6.40;99.90;;;;;;5052919;28;20208;-76
2023/04/27 01:09:27;;;;;;;5.40;3.63;;;6.40;99.90;;;;;;5042135;28;20723;-76
2023/04/27 01:11:52;;;;;;;2.95;2.75;;;6.40;99.90;;;;;;5057443;28;20262;-76
2023/04/27 01:14:18;;;;;;;3.13;2.83;;;6.40;99.90;;;;;;5053261;28;20638;-75
2023/04/27 01:16:45;;;;;;;3.67;3.38;;;6.40;99.90;;;;;;5055641;28;20216;-76
2023/04/27 01:19:11;;;;;;;3.30;3.00;;;6.40;99.90;;;;;;5051059;28;20178;-76
2023/04/27 01:21:36;;;;;;;4.13;2.95;;;6.50;99.90;;;;;;5053590;28;20200;-76
2023/04/27 01:24:06;;;;;;;3.85;2.95;;;6.50;99.90;;;;;;5049401;28;20197;-76
2023/04/27 01:26:32;;;;;;;3.88;3.10;;;6.60;99.90;;;;;;5051340;28;20694;-76
2023/04/27 01:28:58;;;;;;;3.78;2.97;;;6.60;99.90;;;;;;5033735;28;20723;-76
2023/04/27 01:31:24;;;;;;;3.40;3.20;;;6.60;99.90;;;;;;5044079;28;20178;-76
2023/04/27 01:33:49;;;;;;;3.67;3.38;;;6.60;99.90;;;;;;5046146;28;20655;-77
2023/04/27 01:36:15;;;;;;;4.05;3.22;;;6.50;99.90;;;;;;5049536;28;20234;-78
2023/04/27 01:38:41;;;;;;;3.58;3.28;;;6.40;99.90;;;;;;5053785;28;20195;-77
2023/04/27 01:41:08;;;;;;;3.10;2.78;;;6.30;99.90;;;;;;5046934;28;20186;-78
2023/04/27 01:43:34;;;;;;;3.58;3.08;;;6.30;99.90;;;;;;5048839;28;20247;-76
2023/04/27 01:46:12;;;;;;;3.60;2.85;;;6.30;99.90;;;;;;5045212;28;20219;-76
2023/04/27 01:48:39;;;;;;;3.88;3.20;;;6.30;99.90;;;;;;5044969;28;20263;-76
2023/04/27 01:51:05;;;;;;;4.32;3.20;;;6.30;99.90;;;;;;5060346;28;20179;-76
2023/04/27 01:53:30;;;;;;;3.17;2.88;;;6.30;99.90;;;;;;5036275;28;20172;-75
2023/04/27 01:55:58;;;;;;;3.42;3.10;;;6.40;99.90;;;;;;5052395;28;20229;-76
2023/04/27 01:58:24;;;;;;;4.70;3.95;;;6.30;99.90;;;;;;5041024;28;20199;-75
2023/04/27 02:00:50;;;;;;;2.88;2.67;;;6.40;99.90;;;;;;5059491;28;20176;-75
2023/04/27 02:03:15;;;;;;;3.40;3.10;;;6.40;99.90;;;;;;5054736;28;20184;-75
2023/04/27 02:05:41;;;;;;;3.53;2.90;;;6.50;99.90;;;;;;5048788;28;20214;-76
2023/04/27 02:08:07;;;;;;;4.25;3.15;;;6.50;99.90;;;;;;5052237;28;20663;-76
2023/04/27 02:10:34;;;;;;;3.10;2.90;;;6.60;99.90;;;;;;5051639;28;20180;-75
2023/04/27 02:13:00;;;;;;;6.35;3.10;;;6.60;99.90;;;;;;5052369;28;20733;-75
2023/04/27 02:15:25;;;;;;;3.35;2.80;;;6.60;99.90;;;;;;5040206;28;20278;-75
2023/04/27 02:17:51;;;;;;;4.20;3.78;;;6.60;99.90;;;;;;5051222;28;20225;-75
2023/04/27 02:20:17;;;;;;;5.95;3.53;;;6.50;99.90;;;;;;5035279;28;20195;-75
2023/04/27 02:22:43;;;;;;;3.00;2.72;;;6.50;99.90;;;;;;5037064;28;20188;-76
2023/04/27 02:25:10;;;;;;;5.70;3.10;;;6.50;99.90;;;;;;5052773;28;20234;-75
2023/04/27 02:27:42;;;;;;;2.97;2.63;;;6.50;99.90;;;;;;5038559;28;20210;-76
2023/04/27 02:30:09;;;;;;;3.53;2.97;;;6.50;99.90;;;;;;5053582;28;20188;-76
2023/04/27 02:32:35;;;;;;;4.78;3.40;;;6.50;99.90;;;;;;5050278;28;20664;-77
2023/04/27 02:35:01;;;;;;;3.42;3.20;;;6.50;99.90;;;;;;5047452;28;20176;-77
2023/04/27 02:37:27;;;;;;;3.33;3.03;;;6.50;99.90;;;;;;5048586;28;20199;-77
2023/04/27 02:39:53;;;;;;;3.42;2.78;;;6.40;99.90;;;;;;5045119;28;20219;-76
2023/04/27 02:42:18;;;;;;;6.20;3.40;;;6.30;99.90;;;;;;5039114;28;20437;-76
2023/04/27 02:44:44;;;;;;;3.75;3.17;;;6.30;99.90;;;;;;5051849;28;20183;-75
2023/04/27 02:47:10;;;;;;;3.90;2.67;;;6.30;99.90;;;;;;5042052;28;21731;-75
2023/04/27 02:49:36;;;;;;;3.67;2.72;;;6.30;99.90;;;;;;5048145;28;20172;-76
2023/04/27 02:52:02;;;;;;;3.53;3.22;;;6.30;99.90;;;;;;5033922;28;20180;-75
2023/04/27 02:54:27;;;;;;;3.28;2.97;;;6.20;99.90;;;;;;5047779;28;20663;-76
2023/04/27 02:56:53;;;;;;;3.95;3.15;;;6.00;99.90;;;;;;5054343;28;20261;-76
2023/04/27 02:59:19;;;;;;;4.38;2.78;;;5.90;99.90;;;;;;5053078;28;20193;-76
2023/04/27 03:01:45;;;;;;;5.47;3.33;;;5.80;99.90;;;;;;5046948;28;20259;-76
2023/04/27 03:04:12;;;;;;;4.60;3.20;;;5.70;99.90;;;;;;5042345;28;20188;-76
2023/04/27 03:06:38;;;;;;;4.15;3.30;;;5.70;99.90;;;;;;5043935;28;20219;-75
2023/04/27 03:09:04;;;;;;;4.07;3.67;;;5.70;99.90;;;;;;5048756;28;20165;-75
2023/04/27 03:11:30;;;;;;;5.38;3.50;;;5.70;99.90;;;;;;5049395;28;20552;-75
2023/04/27 03:13:55;;;;;;;5.97;3.45;;;5.60;99.90;;;;;;5049530;28;20177;-76
2023/04/27 03:16:21;;;;;;;3.10;2.80;;;5.60;99.90;;;;;;5049509;28;20226;-75
2023/04/27 03:18:46;;;;;;;4.47;3.53;;;5.50;99.90;;;;;;5048657;28;20188;-75
2023/04/27 03:21:12;;;;;;;4.13;3.40;;;5.50;99.90;;;;;;5041000;28;20199;-76
2023/04/27 03:23:38;;;;;;;3.92;3.42;;;5.40;99.90;;;;;;5046601;28;20183;-75
2023/04/27 03:26:09;;;;;;;4.25;3.60;;;5.40;99.90;;;;;;5047751;28;20203;-76
2023/04/27 03:28:35;;;;;;;3.33;2.97;;;5.40;99.90;;;;;;5028337;28;20180;-75
2023/04/27 03:31:08;;;;;;;6.80;3.88;;;5.30;99.90;;;;;;5047580;28;20683;-75
2023/04/27 03:33:35;;;;;;;4.95;3.70;;;5.30;99.90;;;;;;5046417;28;20199;-75
2023/04/27 03:36:01;;;;;;;3.33;3.10;;;5.20;99.90;;;;;;5035907;28;20255;-76
2023/04/27 03:38:27;;;;;;;3.67;3.40;;;5.20;99.90;;;;;;5040747;28;20667;-76
2023/04/27 03:40:53;;;;;;;4.05;3.53;;;5.20;99.90;;;;;;5042229;28;20243;-76
2023/04/27 03:43:19;;;;;;;4.05;3.70;;;5.20;99.90;;;;;;5044465;28;20187;-75
2023/04/27 03:45:45;;;;;;;4.03;3.72;;;5.20;99.90;;;;;;5045928;28;20294;-75
2023/04/27 03:48:12;;;;;;;5.15;3.72;;;5.20;99.90;;;;;;5047302;28;20262;-75
2023/04/27 03:50:37;;;;;;;5.10;4.22;;;5.20;99.90;;;;;;5047406;28;20451;-76
2023/04/27 03:53:03;;;;;;;3.97;3.53;;;5.20;99.90;;;;;;5041661;28;20230;-75
2023/04/27 03:55:29;;;;;;;4.47;3.95;;;5.10;99.90;;;;;;5035682;28;20212;-75
2023/04/27 03:57:54;;;;;;;5.35;3.90;;;5.00;99.90;;;;;;5046422;28;20659;-75
2023/04/27 04:00:20;;;;;;;6.18;4.07;;;5.00;99.90;;;;;;5061066;28;20229;-76
2023/04/27 04:02:46;;;;;;;4.90;3.90;;;5.00;99.90;;;;;;5044276;28;20603;-75
2023/04/27 04:05:13;;;;;;;4.93;3.85;;;5.00;99.90;;;;;;5042581;28;20172;-76
2023/04/27 04:07:40;;;;;;;3.75;3.30;;;5.00;99.90;;;;;;5051363;28;20168;-75
2023/04/27 04:10:06;;;;;;;5.28;3.30;;;5.00;99.90;;;;;;5053141;28;20646;-76
2023/04/27 04:12:32;;;;;;;4.38;3.90;;;5.00;99.90;;;;;;5040531;28;20171;-76
2023/04/27 04:14:58;;;;;;;4.25;3.80;;;5.00;99.90;;;;;;5046293;28;20551;-76
2023/04/27 04:17:23;;;;;;;4.50;4.10;;;5.00;99.90;;;;;;5047867;28;20211;-76
2023/04/27 04:19:49;;;;;;;6.40;3.85;;;5.00;99.90;;;;;;5052374;28;20259;-75
2023/04/27 04:22:14;;;;;;;5.65;4.07;;;5.10;99.90;;;;;;5056185;28;20202;-76
2023/04/27 04:24:40;;;;;;;4.45;3.90;;;5.10;99.90;;;;;;5034077;28;20324;-75
2023/04/27 04:27:06;;;;;;;4.57;3.78;;;5.20;99.90;;;;;;5056275;28;20206;-76
2023/04/27 04:29:32;;;;;;;5.30;4.18;;;5.20;99.90;;;;;;5054250;28;20163;-76
2023/04/27 04:31:58;;;;;;;3.83;3.20;;;5.20;99.90;;;;;;5050066;28;20180;-75
2023/04/27 04:34:23;;;;;;;4.30;3.60;;;5.20;99.90;;;;;;5034201;28;20172;-75
2023/04/27 04:36:52;;;;;;;3.70;3.47;;;5.20;99.90;;;;;;5040856;28;20231;-75
2023/04/27 04:39:21;;;;;;;6.45;4.47;;;5.30;99.90;;;;;;5052459;28;20221;-76
2023/04/27 04:41:50;;;;;;;3.55;3.17;;;5.40;99.90;;;;;;5058274;28;20211;-75
2023/04/27 04:44:16;;;;;;;4.30;4.00;;;5.50;99.90;;;;;;5050737;28;20179;-75
2023/04/27 04:46:42;;;;;;;7.70;3.83;;;5.60;99.90;;;;;;5051627;28;20290;-74
2023/04/27 04:49:08;;;;;;;4.32;3.58;;;5.60;99.90;;;;;;5043841;28;20524;-75
2023/04/27 04:51:34;;;;;;;3.92;3.30;;;5.70;99.90;;;;;;5054162;28;20183;-74
2023/04/27 04:54:00;;;;;;;3.55;3.35;;;5.70;99.90;;;;;;5052139;28;20839;-75
2023/04/27 04:56:25;;;;;;;3.80;3.50;;;5.70;99.90;;;;;;5055648;28;20195;-75
2023/04/27 04:58:51;;;;;;;4.10;3.70;;;5.60;99.90;;;;;;5031950;28;20211;-75
2023/04/27 05:01:17;;;;;;;3.92;3.53;;;5.60;99.90;;;;;;5032079;28;20270;-75
2023/04/27 05:03:42;;;;;;;7.30;3.67;;;5.50;99.90;;;;;;5054755;28;20238;-75
2023/04/27 05:06:08;;;;;;;5.25;3.42;;;5.50;99.90;;;;;;5060850;28;20605;-76
2023/04/27 05:08:34;;;;;;;4.20;3.38;;;5.60;99.90;;;;;;5056112;28;20195;-77
2023/04/27 05:11:00;;;;;;;4.30;3.42;;;5.80;99.90;;;;;;5048112;28;20237;-79
2023/04/27 05:13:26;;;;;;;4.07;3.20;;;5.90;99.90;;;;;;5052554;28;20171;-76
2023/04/27 05:15:51;;;;;;;3.33;3.03;;;6.00;99.90;;;;;;5049144;28;20257;-76
2023/04/27 05:18:17;;;;;;;5.18;3.60;;;6.10;99.90;;;;;;5051142;28;20211;-78
2023/04/27 05:20:43;;;;;;;4.38;3.97;;;6.10;99.90;;;;;;5033058;28;20207;-77
2023/04/27 05:23:08;;;;;;;6.78;3.65;;;6.00;99.90;;;;;;5050302;28;20229;-78
2023/04/27 05:25:40;;;;;;;5.53;3.58;;;6.10;99.90;;;;;;5045165;28;20227;-76
2023/04/27 05:28:09;;;;;;;4.60;3.30;;;6.30;99.90;;;;;;5051514;28;20602;-77
2023/04/27 05:30:35;;;;;;;4.40;3.05;;;6.60;99.90;;;;;;5052490;28;20267;-77
2023/04/27 05:33:02;;;;;;;6.00;3.45;;;6.80;99.90;;;;;;5051595;28;20703;-78
2023/04/27 05:35:29;;;;;;;3.08;2.83;;;7.00;99.90;;;;;;5052163;28;20190;-77
2023/04/27 05:37:55;;;;;;;6.80;3.22;;;7.00;99.90;;;;;;5045439;28;20189;-77
2023/04/27 05:40:21;;;;;;;3.65;3.33;;;7.30;99.90;;;;;;5058492;28;20181;-77
2023/04/27 05:42:46;;;;;;;3.78;3.28;;;7.40;99.90;;;;;;5052715;28;20196;-77
2023/04/27 05:45:12;;;;;;;3.88;3.30;;;7.70;99.90;;;;;;5041132;28;20187;-78
2023/04/27 05:47:38;;;;;;;5.13;3.13;;;7.60;99.90;;;;;;5056867;28;20176;-77
2023/04/27 05:50:04;;;;;;;3.95;3.55;;;7.80;99.90;;;;;;5049966;28;20302;-77
2023/04/27 05:52:30;;;;;;;4.55;3.53;;;7.80;99.90;;;;;;5055826;28;20167;-77
2023/04/27 05:54:59;;;;;;;3.92;3.50;;;8.10;99.90;;;;;;5053649;28;20179;-78
2023/04/27 05:57:25;;;;;;;5.32;3.50;;;8.40;99.90;;;;;;5045581;28;20298;-77
2023/04/27 05:59:52;;;;;;;4.30;3.63;;;8.60;99.90;;;;;;5057149;28;20270;-77
2023/04/27 06:02:18;;;;;;;3.30;3.00;;;8.70;99.90;;;;;;5053686;28;20180;-75
2023/04/27 06:04:45;;;;;;;2.97;2.80;;;8.90;99.90;;;;;;5046897;28;20234;-75
2023/04/27 06:07:12;;;;;;;5.30;3.33;;;8.90;99.90;;;;;;5050485;28;20214;-75
2023/04/27 06:09:37;;;;;;;4.07;3.50;;;9.00;99.90;;;;;;5050267;28;20232;-74
2023/04/27 06:12:04;;;;;;;4.65;3.47;;;9.00;99.90;;;;;;5054226;28;20863;-74
2023/04/27 06:14:31;;;;;;;3.35;2.80;;;9.20;99.90;;;;;;5054771;28;20168;-75
2023/04/27 06:16:56;;;;;;;4.28;3.45;;;9.60;99.90;;;;;;5045070;28;20210;-76
2023/04/27 06:19:22;;;;;;;3.42;2.78;;;9.70;99.90;;;;;;5052283;28;21298;-76
2023/04/27 06:21:48;;;;;;;2.97;2.78;;;9.60;99.90;;;;;;5047691;28;20265;-77
2023/04/27 06:24:14;;;;;;;3.60;3.00;;;9.70;99.90;;;;;;5052084;28;20270;-77
2023/04/27 06:26:40;;;;;;;3.53;2.97;;;9.80;99.90;;;;;;5052413;28;20307;-79
2023/04/27 06:29:06;;;;;;;4.28;3.17;;;10.10;99.90;;;;;;5057845;28;20684;-77
2023/04/27 06:31:32;;;;;;;3.90;3.15;;;10.30;99.90;;;;;;5047797;28;20332;-77
2023/04/27 06:33:58;;;;;;;3.85;3.15;;;10.00;99.90;;;;;;5049851;28;20204;-78
2023/04/27 06:36:28;;;;;;;5.65;3.42;;;10.40;99.90;;;;;;5035525;28;20203;-76
2023/04/27 06:38:55;;;;;;;3.45;3.05;;;10.30;99.90;;;;;;5049268;28;20184;-77
2023/04/27 06:41:24;;;;;;;7.03;2.88;;;10.40;99.90;;;;;;5044981;28;20187;-76
2023/04/27 06:43:51;;;;;;;4.00;2.80;;;10.70;99.90;;;;;;5057186;28;20212;-78
2023/04/27 06:46:16;;;;;;;5.90;3.30;;;11.10;99.20;;;;;;5054263;28;20763;-77
2023/04/27 06:48:42;;;;;;;6.32;2.90;;;11.20;99.90;;;;;;5046306;28;20226;-77
2023/04/27 06:51:08;;;;;;;3.45;3.10;;;11.10;99.00;;;;;;5051424;28;20192;-77
2023/04/27 06:53:33;;;;;;;4.78;3.50;;;11.30;98.00;;;;;;5052077;28;20249;-76
2023/04/27 06:55:59;;;;;;;3.78;2.90;;;11.70;98.00;;;;;;5058832;28;20257;-78
2023/04/27 06:58:26;;;;;;;4.65;3.33;;;11.70;96.70;;;;;;5056807;28;20190;-77
2023/04/27 07:00:52;;;;;;;2.85;2.60;;;11.60;96.90;;;;;;5050246;28;20643;-77
2023/04/27 07:03:18;;;;;;;6.20;3.80;;;11.90;96.90;;;;;;5056426;28;20210;-78
2023/04/27 07:05:43;;;;;;;5.55;3.60;;;12.00;94.80;;;;;;5062329;28;20211;-77
2023/04/27 07:08:09;;;;;;;6.03;3.65;;;11.00;94.20;;;;;;5050486;28;20643;-78
2023/04/27 07:10:35;;;;;;;4.85;4.00;;;11.30;95.10;;;;;;5056099;28;20194;-77
2023/04/27 07:13:00;;;;;;;4.80;3.40;;;11.80;95.50;;;;;;5051776;28;20263;-77
2023/04/27 07:15:26;;;;;;;3.38;3.17;;;11.80;95.50;;;;;;5053592;28;20179;-78
2023/04/27 07:17:54;;;;;;;3.50;3.15;;;12.20;95.70;;;;;;5035403;28;20184;-78
2023/04/27 07:20:20;;;;;;;6.40;3.75;;;13.10;93.50;;;;;;5036335;28;20210;-78
2023/04/27 07:22:52;;;;;;;4.38;3.20;;;13.70;92.00;;;;;;5086891;27;21121;-76
2023/04/27 07:25:19;;;;;;;4.55;3.63;;;12.70;91.80;;;;;;5081352;28;20187;-80
2023/04/27 07:27:45;;;;;;;4.35;3.60;;;13.00;92.60;;;;;;5067414;28;20194;-75
2023/04/27 07:30:13;;;;;;;3.55;3.10;;;13.40;91.70;;;;;;5065193;28;20190;-75
2023/04/27 07:32:41;;;;;;;6.15;3.08;;;13.70;91.50;;;;;;5067125;28;20217;-77
2023/04/27 07:35:10;;;;;;;7.40;3.72;;;14.30;86.80;;;;;;5080426;28;20192;-77
2023/04/27 07:37:37;;;;;;;3.67;3.25;;;14.10;88.70;;;;;;5072778;28;20544;-77
2023/04/27 07:40:13;;;;;;;7.50;3.47;;;14.20;90.20;;;;;;5066325;28;20192;-76
2023/04/27 07:42:40;;;;;;;5.60;3.17;;;14.70;89.00;;;;;;5064811;28;20207;-76
2023/04/27 07:45:09;;;;;;;3.58;3.17;;;14.50;84.00;;;;;;5068645;28;20220;-77
2023/04/27 07:47:35;;;;;;;5.70;3.67;;;15.10;80.90;;;;;;5075670;28;20678;-77
2023/04/27 07:50:03;;;;;;;4.88;3.17;;;15.10;81.70;;;;;;5076720;28;20255;-77
2023/04/27 07:52:29;;;;;;;8.98;3.58;;;15.00;80.30;;;;;;5067568;28;20220;-77
2023/04/27 07:54:54;;;;;;;10.02;4.22;;;15.50;81.90;;;;;;5068227;28;20199;-76
2023/04/27 07:57:20;;;;;;;8.27;3.50;;;15.90;79.40;;;;;;5063415;28;20198;-77
2023/04/27 07:59:46;;;;;;;9.05;3.65;;;15.70;79.00;;;;;;5078453;28;20195;-79
2023/04/27 08:02:15;;;;;;;11.50;3.70;;;15.80;77.60;;;;;;5079658;28;20204;-79
2023/04/27 08:04:40;;;;;;;5.40;3.85;;;16.20;77.30;;;;;;5098323;28;20179;-79
2023/04/27 08:07:06;;;;;;;6.07;3.70;;;16.10;75.90;;;;;;5080350;28;20221;-78
2023/04/27 08:09:32;;;;;;;10.20;4.07;;;16.20;75.10;;;;;;5078082;28;20203;-77
2023/04/27 08:11:57;;;;;;;9.25;4.20;;;16.30;74.50;;;;;;5077703;28;20203;-82
2023/04/27 08:14:23;;;;;;;8.45;4.10;;;15.90;76.00;;;;;;5093202;28;20692;-78
2023/04/27 08:16:50;;;;;;;5.80;4.00;;;16.70;74.40;;;;;;5072293;28;20271;-78
2023/04/27 08:19:17;;;;;;;7.25;3.85;;;16.90;73.60;;;;;;5072630;28;21442;-78
2023/04/27 08:21:43;;;;;;;7.28;4.13;;;17.10;75.60;;;;;;5077330;28;20239;-78
2023/04/27 08:24:09;;;;;;;8.02;4.32;;;17.50;72.50;;;;;;5084666;28;20190;-77
2023/04/27 08:26:34;;;;;;;6.82;4.55;;;16.70;69.80;;;;;;5071163;28;20195;-77
2023/04/27 08:29:01;;;;;;;7.55;4.43;;;15.40;73.30;;;;;;5066041;28;20178;-76
2023/04/27 08:31:26;;;;;;;8.43;4.28;;;14.90;75.60;;;;;;5070887;28;20187;-76
2023/04/27 08:33:52;;;;;;;4.43;3.90;;;15.10;75.30;;;;;;5054195;28;20184;-75
2023/04/27 08:36:23;;;;;;;6.40;4.35;;;15.80;73.20;;;;;;5055647;28;20196;-75
2023/04/27 08:38:49;;;;;;;7.25;4.57;;;16.20;72.10;;;;;;5052682;28;20719;-75
2023/04/27 08:41:20;;;;;;;7.30;4.28;;;15.80;72.00;;;;;;5051980;28;20206;-75
2023/04/27 08:43:45;;;;;;;5.53;4.43;;;15.70;73.30;;;;;;5048984;28;20179;-75
2023/04/27 08:46:11;;;;;;;6.93;4.05;;;16.30;71.30;;;;;;5050229;28;20196;-75
2023/04/27 08:48:36;;;;;;;5.93;4.03;;;16.50;68.30;;;;;;5068141;28;20200;-76
2023/04/27 08:51:07;;;;;;;5.70;4.30;;;17.20;66.60;;;;;;5051371;28;20219;-75
2023/04/27 08:53:33;;;;;;;7.10;4.65;;;17.90;64.90;;;;;;5049383;28;20184;-75
2023/04/27 08:55:58;;;;;;;4.82;4.10;;;18.30;65.00;;;;;;5052264;28;20234;-75
2023/04/27 08:58:38;;;;;;;6.88;3.88;;;18.30;62.90;;;;;;5050064;28;20180;-75
2023/04/27 09:01:07;;;;;;;7.53;4.30;;;18.10;65.30;;;;;;5051403;28;20249;-74
2023/04/27 09:03:33;;;;;;;7.65;4.00;;;18.10;67.00;;;;;;5045583;28;20186;-75
2023/04/27 09:06:03;;;;;;;5.22;3.50;;;18.80;60.20;;;;;;5053888;28;20227;-75
2023/04/27 09:08:39;;;;;;;7.07;4.75;;;18.60;64.50;;;;;;5041844;28;20689;-76
2023/04/27 09:11:05;;;;;;;18.10;7.88;;;18.70;64.80;;;;;;5051566;28;20472;-76
2023/04/27 09:13:41;;;;;;;6.90;3.88;;;19.50;63.00;;;;;;5052916;28;20262;-76
2023/04/27 09:16:07;;;;;;;4.22;3.13;;;19.10;61.60;;;;;;5049363;28;20693;-75
2023/04/27 09:18:36;;;;;;;3.67;3.35;;;19.80;58.20;;;;;;5051556;28;20211;-75
2023/04/27 09:21:03;;;;;;;8.63;4.25;;;20.30;58.10;;;;;;5049548;28;20204;-77
2023/04/27 09:23:37;;;;;;;4.90;3.40;;;19.40;57.80;;;;;;5051329;28;20681;-77
2023/04/27 09:26:07;;;;;;;5.57;3.30;;;19.50;58.10;;;;;;5053150;28;20207;-77
2023/04/27 09:28:37;;;;;;;3.15;2.95;;;20.70;56.10;;;;;;5053827;28;20639;-77
2023/04/27 09:31:03;;;;;;;12.02;5.35;;;21.20;57.70;;;;;;5046848;28;20184;-76
2023/04/27 09:33:31;;;;;;;5.25;3.05;;;21.70;55.70;;;;;;5055101;28;20219;-76
2023/04/27 09:35:59;;;;;;;3.20;2.90;;;22.50;52.40;;;;;;5052265;28;20290;-77
2023/04/27 09:38:25;;;;;;;5.85;3.08;;;23.30;51.40;;;;;;5052933;28;20267;-77
2023/04/27 09:40:52;;;;;;;4.13;3.00;;;22.60;49.30;;;;;;5056206;28;20231;-76
2023/04/27 09:43:18;;;;;;;3.47;2.88;;;22.60;50.50;;;;;;5050223;28;20659;-77
2023/04/27 09:45:45;;;;;;;4.72;2.80;;;22.40;51.30;;;;;;5061133;28;20578;-80
2023/04/27 09:48:12;;;;;;;4.05;3.55;;;22.10;49.70;;;;;;5062780;28;20176;-77
2023/04/27 09:50:40;;;;;;;4.97;3.25;;;21.30;50.00;;;;;;5055401;28;20633;-77
2023/04/27 09:53:10;;;;;;;3.80;3.10;;;20.10;52.70;;;;;;5056065;28;20208;-76
2023/04/27 09:56:00;;;;;;;5.90;4.05;;;20.70;55.10;;;;;;5060274;28;20192;-77
2023/04/27 09:59:05;;;;;;;5.68;3.50;;;21.40;52.00;;;;;;5055380;28;20289;-78
2023/04/27 10:01:37;;;;;;;3.20;2.92;;;20.30;51.70;;;;;;5059104;28;20194;-78
2023/04/27 10:04:24;;;;;;;6.28;3.63;;;21.80;50.90;;;;;;5057694;28;20738;-78
2023/04/27 10:07:00;;;;;;;3.95;3.17;;;22.70;50.50;;;;;;5066406;28;20216;-78
2023/04/27 10:09:29;;;;;;;4.60;3.72;;;24.40;48.60;;;;;;5053629;28;20175;-78
2023/04/27 10:11:55;;;;;;;5.30;2.92;;;25.20;48.40;;;;;;5070624;28;20193;-76
2023/04/27 10:14:22;;;;;;;6.13;2.92;;;26.90;45.40;;;;;;5046344;28;20179;-76
2023/04/27 10:16:55;;;;;;;2.50;2.30;;;28.70;44.00;;;;;;5048563;28;20208;-77
2023/04/27 10:19:22;;;;;;;2.78;2.50;;;28.50;41.40;;;;;;5047957;28;20188;-76
2023/04/27 10:22:02;;;;;;;4.72;3.00;;;28.40;42.30;;;;;;5046254;28;20301;-75
2023/04/27 10:24:37;;;;;;;2.67;2.47;;;27.00;43.00;;;;;;5049988;28;20183;-76
2023/04/27 10:27:08;;;;;;;2.08;1.98;;;27.70;42.20;;;;;;5065044;28;20225;-76
2023/04/27 10:29:41;;;;;;;2.65;2.50;;;30.60;40.90;;;;;;5048874;28;20646;-78
2023/04/27 10:32:12;;;;;;;4.43;2.63;;;31.10;36.20;;;;;;5044101;28;20190;-77
2023/04/27 10:34:40;;;;;;;3.58;2.60;;;31.10;36.70;;;;;;5048035;28;20658;-77
2023/04/27 10:37:08;;;;;;;2.88;2.20;;;32.90;34.60;;;;;;5048034;28;20214;-76
2023/04/27 10:39:37;;;;;;;2.72;2.28;;;32.10;33.70;;;;;;5049223;28;20513;-76
2023/04/27 10:42:03;;;;;;;4.60;2.55;;;30.60;37.60;;;;;;5047602;28;20230;-76
2023/04/27 10:44:31;;;;;;;2.30;2.10;;;30.90;38.30;;;;;;5048550;28;20176;-76
2023/04/27 10:46:58;;;;;;;3.28;2.72;;;31.40;36.80;;;;;;5049468;28;20562;-77
2023/04/27 10:49:26;;;;;;;4.05;2.30;;;31.00;36.10;;;;;;5045168;28;20691;-77
2023/04/27 10:51:53;;;;;;;3.35;2.30;;;33.10;34.60;;;;;;5043491;28;20192;-77
2023/04/27 10:54:18;;;;;;;2.47;2.10;;;31.20;35.40;;;;;;5046925;28;20183;-76
2023/04/27 10:56:44;;;;;;;2.25;2.05;;;33.60;34.20;;;;;;5061805;28;20213;-77
2023/04/27 10:59:10;;;;;;;4.63;2.45;;;30.50;35.60;;;;;;5045079;28;20187;-75
2023/04/27 11:01:36;;;;;;;3.85;2.50;;;29.00;36.50;;;;;;5050376;28;20744;-76
2023/04/27 11:04:02;;;;;;;2.40;2.20;;;28.50;38.50;;;;;;5049949;28;20593;-75
2023/04/27 11:06:29;;;;;;;2.72;2.22;;;28.50;39.00;;;;;;5044559;28;20195;-75
2023/04/27 11:08:55;;;;;;;3.20;2.42;;;31.00;37.60;;;;;;5051747;28;20179;-75
2023/04/27 11:11:21;;;;;;;2.72;2.53;;;30.40;35.60;;;;;;5049833;28;20174;-75
2023/04/27 11:13:48;;;;;;;4.50;2.58;;;32.20;37.20;;;;;;5048726;28;20202;-75
2023/04/27 11:16:18;;;;;;;4.18;2.72;;;31.10;35.60;;;;;;5051803;28;20883;-75
2023/04/27 11:18:44;;;;;;;3.60;2.15;;;31.00;34.50;;;;;;5048382;28;20187;-74
2023/04/27 11:21:19;;;;;;;2.90;2.50;;;30.80;34.60;;;;;;5041031;28;20286;-74
2023/04/27 11:23:45;;;;;;;3.03;2.50;;;31.90;33.40;;;;;;5041768;28;20184;-75
2023/04/27 11:26:15;;;;;;;2.47;2.28;;;33.00;33.20;;;;;;5046738;28;20198;-74
2023/04/27 11:28:42;;;;;;;3.35;2.50;;;31.60;36.00;;;;;;5043372;28;20167;-75
2023/04/27 11:31:08;;;;;;;2.70;2.42;;;30.70;34.00;;;;;;5045262;28;20703;-75
2023/04/27 11:33:34;;;;;;;3.70;2.20;;;29.30;36.20;;;;;;5045213;28;20186;-75
2023/04/27 11:35:59;;;;;;;3.05;2.55;;;30.00;35.70;;;;;;5044766;28;20199;-75
2023/04/27 11:38:31;;;;;;;2.72;2.40;;;29.60;37.40;;;;;;5047768;28;20221;-75
2023/04/27 11:41:05;;;;;;;2.60;2.40;;;28.20;39.00;;;;;;5043911;28;20456;-75
2023/04/27 11:43:31;;;;;;;2.88;2.63;;;30.90;35.20;;;;;;5046006;28;20515;-74
2023/04/27 11:45:57;;;;;;;4.57;2.70;;;32.90;35.50;;;;;;5043686;28;20283;-74
2023/04/27 11:48:25;;;;;;;4.90;2.35;;;33.60;31.90;;;;;;5048796;28;20176;-74
2023/04/27 11:50:52;;;;;;;2.70;2.00;;;32.10;33.00;;;;;;5046528;28;20206;-75
2023/04/27 11:53:37;;;;;;;2.70;1.85;;;33.30;32.40;;;;;;5044991;28;20274;-74
2023/04/27 11:56:05;;;;;;;3.90;2.47;;;34.10;31.40;;;;;;5043526;28;20204;-74
2023/04/27 11:58:35;;;;;;;3.20;2.30;;;33.00;31.90;;;;;;5059845;28;20183;-76
2023/04/27 12:01:02;;;;;;;2.20;2.05;;;31.60;32.70;;;;;;5040999;28;20204;-74
2023/04/27 12:03:28;;;;;;;2.00;1.80;;;30.60;34.80;;;;;;5044754;28;20179;-75
2023/04/27 12:05:54;;;;;;;2.72;2.53;;;32.10;32.50;;;;;;5044974;28;20195;-75
2023/04/27 12:08:20;;;;;;;2.90;2.00;;;32.50;32.20;;;;;;5054714;28;20549;-76
2023/04/27 12:10:46;;;;;;;3.65;2.70;;;31.00;34.40;;;;;;5053301;28;20179;-75
2023/04/27 12:13:13;;;;;;;5.13;2.47;;;31.30;32.40;;;;;;5051122;28;20191;-75
2023/04/27 12:15:39;;;;;;;2.33;2.13;;;31.80;33.00;;;;;;5049410;28;20187;-76
2023/04/27 12:18:05;;;;;;;2.47;2.28;;;30.30;33.20;;;;;;5061804;28;20529;-75
2023/04/27 12:20:30;;;;;;;3.30;2.30;;;29.90;34.60;;;;;;5052045;28;20206;-76
2023/04/27 12:22:56;;;;;;;2.67;2.40;;;28.70;36.10;;;;;;5054241;28;20203;-74
2023/04/27 12:25:22;;;;;;;3.92;2.47;;;26.00;38.80;;;;;;5044433;28;20179;-75
2023/04/27 12:27:48;;;;;;;2.95;2.40;;;25.00;40.00;;;;;;5053668;28;20255;-76
2023/04/27 12:30:14;;;;;;;2.45;2.25;;;24.70;40.60;;;;;;5052027;28;20190;-75
2023/04/27 12:32:40;;;;;;;2.28;2.10;;;25.40;39.40;;;;;;5053723;28;20179;-74
2023/04/27 12:35:07;;;;;;;2.58;2.10;;;26.70;38.40;;;;;;5050875;28;20187;-76
2023/04/27 12:37:33;;;;;;;4.28;2.05;;;28.10;36.40;;;;;;5065548;28;20706;-75
2023/04/27 12:39:59;;;;;;;1.98;1.88;;;28.40;36.30;;;;;;5042959;28;20196;-75
2023/04/27 12:42:25;;;;;;;2.10;2.00;;;29.50;34.80;;;;;;5052061;28;20210;-73
2023/04/27 12:44:51;;;;;;;2.83;2.53;;;28.40;35.60;;;;;;5054647;28;20505;-76
2023/04/27 12:47:19;;;;;;;1.85;1.75;;;26.60;38.10;;;;;;5051904;28;20225;-75
2023/04/27 12:49:45;;;;;;;3.20;2.28;;;28.30;37.30;;;;;;5051868;28;20209;-73
2023/04/27 12:52:10;;;;;;;2.40;2.20;;;28.30;35.90;;;;;;5054096;28;20667;-73